Time;durP1;ratioP1;P1;durP2;ratioP2;P2;SDS_P1;SDS_P2;PMS_P1;PMS_P2;Temp;Humidity;BMP_temperature;BMP_pressure;BME280_temperature;BME280_humidity;BME280_pressure;Samples;Min_cycle;Max_cycle;Signal;HPM_P1;HPM_P2
2023/11/12 00:00:13;;;;;;;;;;;;;;;;;;5023172;28;90567;-61
2023/11/12 00:02:39;;;;;;;;;;;;;;;;;;5020066;27;90268;-62
2023/11/12 00:05:04;;;;;;;;;;;;;;;;;;5025848;28;90646;-62
2023/11/12 00:07:29;;;;;;;;;;;;;;;;;;5023993;28;90014;-62
2023/11/12 00:09:54;;;;;;;;;;;;;;;;;;5025927;28;89543;-62
2023/11/12 00:12:22;;;;;;;;;;;;;;;;;;5027611;28;89839;-61
2023/11/12 00:14:48;;;;;;;;;;;;;;;;;;5024749;28;89182;-62
2023/11/12 00:17:13;;;;;;;;;;;;;;;;;;5023962;28;91018;-62
2023/11/12 00:19:39;;;;;;;;;;;;;;;;;;5025591;27;89620;-61
2023/11/12 00:22:05;;;;;;;;;;;;;;;;;;5026363;27;89724;-61
2023/11/12 00:24:31;;;;;;;;;;;;;;;;;;5020624;28;90724;-62
2023/11/12 00:26:56;;;;;;;;;;;;;;;;;;5024569;28;89576;-62
2023/11/12 00:29:21;;;;;;;;;;;;;;;;;;5024986;28;89842;-62
2023/11/12 00:31:46;;;;;;;;;;;;;;;;;;5024339;28;90285;-61
2023/11/12 00:34:12;;;;;;;;;;;;;;;;;;5010776;28;89167;-62
2023/11/12 00:36:40;;;;;;;;;;;;;;;;;;5024618;28;90040;-62
2023/11/12 00:39:05;;;;;;;;;;;;;;;;;;5021031;27;89282;-62
2023/11/12 00:41:31;;;;;;;;;;;;;;;;;;5023815;27;89126;-62
2023/11/12 00:43:56;;;;;;;;;;;;;;;;;;5025449;28;90212;-61
2023/11/12 00:46:22;;;;;;;;;;;;;;;;;;5024234;28;89831;-62
2023/11/12 00:48:47;;;;;;;;;;;;;;;;;;5024011;27;89084;-61
2023/11/12 00:51:12;;;;;;;;;;;;;;;;;;5023789;28;90218;-62
2023/11/12 00:53:38;;;;;;;;;;;;;;;;;;5025419;27;89741;-62
2023/11/12 00:56:04;;;;;;;;;;;;;;;;;;5025269;28;89061;-62
2023/11/12 00:58:29;;;;;;;;;;;;;;;;;;5023724;28;90852;-61
2023/11/12 01:00:55;;;;;;;;;;;;;;;;;;5024748;28;89720;-62
2023/11/12 01:03:21;;;;;;;;;;;;;;;;;;5021843;28;90050;-62
2023/11/12 01:05:46;;;;;;;;;;;;;;;;;;5023059;28;89222;-61
2023/11/12 01:08:11;;;;;;;;;;;;;;;;;;5024152;28;89039;-62
2023/11/12 01:10:37;;;;;;;;;;;;;;;;;;5002551;28;92863;-61
2023/11/12 01:13:02;;;;;;;;;;;;;;;;;;5018350;28;90291;-62
2023/11/12 01:15:29;;;;;;;;;;;;;;;;;;5024719;28;89074;-62
2023/11/12 01:17:55;;;;;;;;;;;;;;;;;;5027760;28;90678;-61
2023/11/12 01:20:21;;;;;;;;;;;;;;;;;;5023625;28;89031;-61
2023/11/12 01:22:46;;;;;;;;;;;;;;;;;;5023295;27;90608;-61
2023/11/12 01:25:12;;;;;;;;;;;;;;;;;;5024435;28;89293;-61
2023/11/12 01:27:37;;;;;;;;;;;;;;;;;;5020361;28;89370;-61
2023/11/12 01:30:03;;;;;;;;;;;;;;;;;;5022189;28;89998;-62
2023/11/12 01:32:28;;;;;;;;;;;;;;;;;;5021869;28;89998;-62
2023/11/12 01:34:54;;;;;;;;;;;;;;;;;;5020601;28;89412;-63
2023/11/12 01:37:20;;;;;;;;;;;;;;;;;;5024768;28;90891;-62
2023/11/12 01:39:47;;;;;;;;;;;;;;;;;;5026990;28;90310;-62
2023/11/12 01:42:13;;;;;;;;;;;;;;;;;;5025090;27;90497;-62
2023/11/12 01:44:38;;;;;;;;;;;;;;;;;;5024835;27;91310;-62
2023/11/12 01:47:04;;;;;;;;;;;;;;;;;;5024801;27;89154;-62
2023/11/12 01:49:32;;;;;;;;;;;;;;;;;;5021844;28;90226;-62
2023/11/12 01:51:57;;;;;;;;;;;;;;;;;;5021078;28;89834;-62
2023/11/12 01:54:26;;;;;;;;;;;;;;;;;;5023289;28;89991;-61
2023/11/12 01:56:55;;;;;;;;;;;;;;;;;;5023503;28;89598;-62
2023/11/12 01:59:21;;;;;;;;;;;;;;;;;;5027481;28;89409;-61
2023/11/12 02:01:46;;;;;;;;;;;;;;;;;;5020237;28;90622;-62
2023/11/12 02:04:12;;;;;;;;;;;;;;;;;;5020655;27;90122;-61
2023/11/12 02:06:37;;;;;;;;;;;;;;;;;;5019091;28;90888;-62
2023/11/12 02:09:02;;;;;;;;;;;;;;;;;;5021104;28;89493;-62
2023/11/12 02:11:27;;;;;;;;;;;;;;;;;;5023799;28;89833;-62
2023/11/12 02:13:54;;;;;;;;;;;;;;;;;;5017866;28;89265;-61
2023/11/12 02:16:20;;;;;;;;;;;;;;;;;;5025157;27;91353;-62
2023/11/12 02:18:46;;;;;;;;;;;;;;;;;;5022427;28;89203;-62
2023/11/12 02:21:11;;;;;;;;;;;;;;;;;;5024233;27;89872;-62
2023/11/12 02:23:38;;;;;;;;;;;;;;;;;;5021564;28;90140;-62
2023/11/12 02:26:03;;;;;;;;;;;;;;;;;;5022452;28;89001;-61
2023/11/12 02:28:29;;;;;;;;;;;;;;;;;;5022124;28;90226;-61
2023/11/12 02:30:54;;;;;;;;;;;;;;;;;;5023178;28;89906;-63
2023/11/12 02:33:26;;;;;;;;;;;;;;;;;;5018005;28;90058;-63
2023/11/12 02:35:52;;;;;;;;;;;;;;;;;;5022747;27;90774;-62
2023/11/12 02:38:17;;;;;;;;;;;;;;;;;;5022104;28;89578;-61
2023/11/12 02:40:43;;;;;;;;;;;;;;;;;;5023350;28;89427;-62
2023/11/12 02:43:09;;;;;;;;;;;;;;;;;;5021946;28;89546;-62
2023/11/12 02:45:34;;;;;;;;;;;;;;;;;;5001351;28;92138;-62
2023/11/12 02:48:00;;;;;;;;;;;;;;;;;;5022305;27;89880;-62
2023/11/12 02:50:27;;;;;;;;;;;;;;;;;;5022978;27;89714;-62
2023/11/12 02:52:53;;;;;;;;;;;;;;;;;;5021400;28;89419;-61
2023/11/12 02:55:19;;;;;;;;;;;;;;;;;;5022346;28;89481;-62
2023/11/12 02:57:45;;;;;;;;;;;;;;;;;;5023706;28;89506;-62
2023/11/12 03:00:10;;;;;;;;;;;;;;;;;;5022917;28;89243;-61
2023/11/12 03:02:35;;;;;;;;;;;;;;;;;;5020376;28;89840;-61
2023/11/12 03:05:01;;;;;;;;;;;;;;;;;;5026852;28;89248;-62
2023/11/12 03:07:26;;;;;;;;;;;;;;;;;;5023690;28;89930;-62
2023/11/12 03:09:51;;;;;;;;;;;;;;;;;;5021232;28;89598;-62
2023/11/12 03:12:16;;;;;;;;;;;;;;;;;;5023273;27;89771;-62
2023/11/12 03:14:43;;;;;;;;;;;;;;;;;;5021732;27;89587;-62
2023/11/12 03:17:08;;;;;;;;;;;;;;;;;;5023310;28;90127;-62
2023/11/12 03:19:34;;;;;;;;;;;;;;;;;;5022039;28;89316;-62
2023/11/12 03:22:00;;;;;;;;;;;;;;;;;;5019842;28;90714;-61
2023/11/12 03:24:25;;;;;;;;;;;;;;;;;;5023082;28;90710;-62
2023/11/12 03:26:52;;;;;;;;;;;;;;;;;;5019438;28;89593;-61
2023/11/12 03:29:17;;;;;;;;;;;;;;;;;;5021098;28;90247;-61
2023/11/12 03:31:48;;;;;;;;;;;;;;;;;;5026106;27;89607;-61
2023/11/12 03:34:13;;;;;;;;;;;;;;;;;;5024256;27;90703;-61
2023/11/12 03:36:38;;;;;;;;;;;;;;;;;;5027321;28;89488;-62
2023/11/12 03:39:04;;;;;;;;;;;;;;;;;;5027411;27;89035;-62
2023/11/12 03:41:29;;;;;;;;;;;;;;;;;;5027246;28;91128;-61
2023/11/12 03:43:54;;;;;;;;;;;;;;;;;;5025948;28;89574;-62
2023/11/12 03:46:20;;;;;;;;;;;;;;;;;;5024251;28;89756;-62
2023/11/12 03:48:45;;;;;;;;;;;;;;;;;;5029376;28;89348;-61
2023/11/12 03:51:10;;;;;;;;;;;;;;;;;;5025952;27;89288;-62
2023/11/12 03:53:35;;;;;;;;;;;;;;;;;;5026197;27;89020;-62
2023/11/12 03:56:01;;;;;;;;;;;;;;;;;;5025654;28;90320;-62
2023/11/12 03:58:26;;;;;;;;;;;;;;;;;;5024391;28;89538;-61
2023/11/12 04:00:51;;;;;;;;;;;;;;;;;;5025275;28;89707;-62
2023/11/12 04:03:18;;;;;;;;;;;;;;;;;;5019757;27;89374;-62
2023/11/12 04:05:44;;;;;;;;;;;;;;;;;;5019519;28;89797;-61
2023/11/12 04:08:09;;;;;;;;;;;;;;;;;;5026004;28;89932;-61
2023/11/12 04:10:34;;;;;;;;;;;;;;;;;;5024731;28;89960;-61
2023/11/12 04:13:02;;;;;;;;;;;;;;;;;;5019653;28;89458;-62
2023/11/12 04:15:27;;;;;;;;;;;;;;;;;;5023748;27;90268;-61
2023/11/12 04:17:54;;;;;;;;;;;;;;;;;;5024322;27;90505;-62
2023/11/12 04:20:19;;;;;;;;;;;;;;;;;;5025084;28;90310;-61
2023/11/12 04:22:45;;;;;;;;;;;;;;;;;;5024270;28;90252;-62
2023/11/12 04:25:10;;;;;;;;;;;;;;;;;;5027732;28;89085;-61
2023/11/12 04:27:37;;;;;;;;;;;;;;;;;;5025828;27;89337;-62
2023/11/12 04:30:03;;;;;;;;;;;;;;;;;;5025863;28;89104;-62
2023/11/12 04:32:28;;;;;;;;;;;;;;;;;;5025269;28;90607;-63
2023/11/12 04:34:54;;;;;;;;;;;;;;;;;;5024229;27;90259;-62
2023/11/12 04:37:20;;;;;;;;;;;;;;;;;;5024008;28;89465;-62
2023/11/12 04:39:45;;;;;;;;;;;;;;;;;;5023834;28;90095;-61
2023/11/12 04:42:10;;;;;;;;;;;;;;;;;;5024980;28;89709;-62
2023/11/12 04:44:35;;;;;;;;;;;;;;;;;;5024752;28;89560;-63
2023/11/12 04:47:01;;;;;;;;;;;;;;;;;;5024493;28;89538;-61
2023/11/12 04:49:26;;;;;;;;;;;;;;;;;;5023551;28;89224;-62
2023/11/12 04:51:51;;;;;;;;;;;;;;;;;;5028200;28;89024;-62
2023/11/12 04:54:17;;;;;;;;;;;;;;;;;;5024099;28;90156;-62
2023/11/12 04:56:46;;;;;;;;;;;;;;;;;;5026635;27;89097;-62
2023/11/12 04:59:11;;;;;;;;;;;;;;;;;;5022058;28;89930;-62
2023/11/12 05:01:36;;;;;;;;;;;;;;;;;;5021794;27;89318;-63
2023/11/12 05:04:01;;;;;;;;;;;;;;;;;;5020917;28;89433;-62
2023/11/12 05:06:28;;;;;;;;;;;;;;;;;;5025133;27;89407;-62
2023/11/12 05:08:54;;;;;;;;;;;;;;;;;;5024117;28;90369;-61
2023/11/12 05:11:19;;;;;;;;;;;;;;;;;;5025958;28;90672;-62
2023/11/12 05:13:45;;;;;;;;;;;;;;;;;;5029359;27;89565;-62
2023/11/12 05:16:10;;;;;;;;;;;;;;;;;;5021260;28;89094;-61
2023/11/12 05:18:35;;;;;;;;;;;;;;;;;;5024968;28;89504;-62
2023/11/12 05:21:00;;;;;;;;;;;;;;;;;;5023427;28;89576;-62
2023/11/12 05:23:26;;;;;;;;;;;;;;;;;;5019353;27;90753;-63
2023/11/12 05:25:52;;;;;;;;;;;;;;;;;;5016536;27;89617;-62
2023/11/12 05:28:17;;;;;;;;;;;;;;;;;;5024318;27;89318;-63
2023/11/12 05:30:43;;;;;;;;;;;;;;;;;;5019726;27;89438;-63
2023/11/12 05:33:08;;;;;;;;;;;;;;;;;;5022664;27;90058;-62
2023/11/12 05:35:33;;;;;;;;;;;;;;;;;;5022561;28;89054;-62
2023/11/12 05:37:59;;;;;;;;;;;;;;;;;;5023864;27;89511;-62
2023/11/12 05:40:24;;;;;;;;;;;;;;;;;;5018336;27;89112;-61
2023/11/12 05:42:49;;;;;;;;;;;;;;;;;;5019393;28;88952;-61
2023/11/12 05:45:15;;;;;;;;;;;;;;;;;;4996642;28;91361;-61
2023/11/12 05:47:40;;;;;;;;;;;;;;;;;;5021692;27;89646;-62
2023/11/12 05:50:06;;;;;;;;;;;;;;;;;;5022933;27;89636;-62
2023/11/12 05:52:31;;;;;;;;;;;;;;;;;;5016467;28;90642;-63
2023/11/12 05:54:56;;;;;;;;;;;;;;;;;;5024743;28;89856;-63
2023/11/12 05:57:22;;;;;;;;;;;;;;;;;;5019719;28;89827;-63
2023/11/12 05:59:48;;;;;;;;;;;;;;;;;;5018474;27;90728;-63
2023/11/12 06:02:13;;;;;;;;;;;;;;;;;;5019152;27;89388;-63
2023/11/12 06:04:38;;;;;;;;;;;;;;;;;;5022152;28;89656;-63
2023/11/12 06:07:04;;;;;;;;;;;;;;;;;;5018079;27;89756;-63
2023/11/12 06:09:29;;;;;;;;;;;;;;;;;;5019370;27;89961;-63
2023/11/12 06:11:57;;;;;;;;;;;;;;;;;;5018106;28;91189;-63
2023/11/12 06:14:22;;;;;;;;;;;;;;;;;;5020592;27;89218;-62
2023/11/12 06:16:48;;;;;;;;;;;;;;;;;;5024793;27;89101;-61
2023/11/12 06:19:13;;;;;;;;;;;;;;;;;;5021381;27;89723;-63
2023/11/12 06:21:38;;;;;;;;;;;;;;;;;;5019457;27;89458;-63
2023/11/12 06:24:04;;;;;;;;;;;;;;;;;;5020051;28;89424;-62
2023/11/12 06:26:29;;;;;;;;;;;;;;;;;;5016747;27;91802;-62
2023/11/12 06:28:55;;;;;;;;;;;;;;;;;;5019662;27;89822;-62
2023/11/12 06:31:21;;;;;;;;;;;;;;;;;;5018395;27;89584;-62
2023/11/12 06:33:46;;;;;;;;;;;;;;;;;;5017892;27;90632;-62
2023/11/12 06:36:13;;;;;;;;;;;;;;;;;;5017623;27;89048;-62
2023/11/12 06:38:40;;;;;;;;;;;;;;;;;;5022203;28;89522;-62
2023/11/12 06:41:06;;;;;;;;;;;;;;;;;;5020309;28;91177;-62
2023/11/12 06:43:31;;;;;;;;;;;;;;;;;;5016588;28;90553;-63
2023/11/12 06:45:56;;;;;;;;;;;;;;;;;;5019999;28;89813;-62
2023/11/12 06:48:24;;;;;;;;;;;;;;;;;;5014176;28;90366;-62
2023/11/12 06:50:49;;;;;;;;;;;;;;;;;;5019458;27;90853;-61
2023/11/12 06:53:14;;;;;;;;;;;;;;;;;;5023574;27;90302;-61
2023/11/12 06:55:40;;;;;;;;;;;;;;;;;;5018289;28;90242;-63
2023/11/12 06:58:05;;;;;;;;;;;;;;;;;;5018376;28;90344;-61
2023/11/12 07:00:32;;;;;;;;;;;;;;;;;;5016398;28;89141;-63
2023/11/12 07:02:57;;;;;;;;;;;;;;;;;;5019811;27;89557;-62
2023/11/12 07:05:22;;;;;;;;;;;;;;;;;;5021620;28;90912;-63
2023/11/12 07:07:48;;;;;;;;;;;;;;;;;;5022650;27;89720;-62
2023/11/12 07:10:13;;;;;;;;;;;;;;;;;;5023954;27;90634;-62
2023/11/12 07:12:38;;;;;;;;;;;;;;;;;;5022553;28;89837;-62
2023/11/12 07:15:04;;;;;;;;;;;;;;;;;;5021283;27;89665;-62
2023/11/12 07:17:31;;;;;;;;;;;;;;;;;;5025143;27;90241;-62
2023/11/12 07:19:56;;;;;;;;;;;;;;;;;;5024174;27;90254;-61
2023/11/12 07:22:22;;;;;;;;;;;;;;;;;;5026385;27;89228;-62
2023/11/12 07:24:48;;;;;;;;;;;;;;;;;;5019358;28;89462;-61
2023/11/12 07:27:13;;;;;;;;;;;;;;;;;;5023492;27;89068;-62
2023/11/12 07:29:38;;;;;;;;;;;;;;;;;;5024380;28;90440;-62
2023/11/12 07:32:03;;;;;;;;;;;;;;;;;;5021890;27;89318;-63
2023/11/12 07:34:29;;;;;;;;;;;;;;;;;;5021884;27;90924;-62
2023/11/12 07:36:54;;;;;;;;;;;;;;;;;;5023143;28;89762;-61
2023/11/12 07:39:20;;;;;;;;;;;;;;;;;;5025331;27;89518;-62
2023/11/12 07:41:46;;;;;;;;;;;;;;;;;;5018496;27;90701;-63
2023/11/12 07:44:12;;;;;;;;;;;;;;;;;;5028197;27;89718;-62
2023/11/12 07:46:41;;;;;;;;;;;;;;;;;;5019787;27;89542;-62
2023/11/12 07:49:07;;;;;;;;;;;;;;;;;;5019812;28;91157;-62
2023/11/12 07:51:32;;;;;;;;;;;;;;;;;;5017620;28;89165;-61
2023/11/12 07:53:57;;;;;;;;;;;;;;;;;;5019628;28;89584;-62
2023/11/12 07:56:22;;;;;;;;;;;;;;;;;;5020464;27;90730;-62
2023/11/12 07:58:48;;;;;;;;;;;;;;;;;;5021416;27;89266;-62
2023/11/12 08:01:13;;;;;;;;;;;;;;;;;;5020280;28;89176;-63
2023/11/12 08:03:38;;;;;;;;;;;;;;;;;;5026003;28;89603;-63
2023/11/12 08:06:04;;;;;;;;;;;;;;;;;;5023342;27;90026;-65
2023/11/12 08:08:29;;;;;;;;;;;;;;;;;;5020346;27;89415;-63
2023/11/12 08:10:54;;;;;;;;;;;;;;;;;;5022408;27;89571;-63
2023/11/12 08:13:20;;;;;;;;;;;;;;;;;;5019952;27;89975;-63
2023/11/12 08:15:45;;;;;;;;;;;;;;;;;;5016773;27;89539;-63
2023/11/12 08:18:10;;;;;;;;;;;;;;;;;;5020355;27;89197;-63
2023/11/12 08:20:36;;;;;;;;;;;;;;;;;;5019939;27;89574;-64
2023/11/12 08:23:01;;;;;;;;;;;;;;;;;;5024179;27;90373;-62
2023/11/12 08:25:28;;;;;;;;;;;;;;;;;;5023653;27;89917;-61
2023/11/12 08:27:53;;;;;;;;;;;;;;;;;;5023087;27;90739;-61
2023/11/12 08:30:18;;;;;;;;;;;;;;;;;;5020414;27;89293;-62
2023/11/12 08:32:44;;;;;;;;;;;;;;;;;;5020270;27;89900;-62
2023/11/12 08:35:09;;;;;;;;;;;;;;;;;;5017518;27;90523;-62
2023/11/12 08:37:35;;;;;;;;;;;;;;;;;;5016433;27;91255;-62
2023/11/12 08:40:02;;;;;;;;;;;;;;;;;;5019362;27;89849;-62
2023/11/12 08:42:27;;;;;;;;;;;;;;;;;;5023024;27;90838;-62
2023/11/12 08:44:54;;;;;;;;;;;;;;;;;;5016989;27;89355;-62
2023/11/12 08:47:19;;;;;;;;;;;;;;;;;;5020617;28;89355;-63
2023/11/12 08:49:45;;;;;;;;;;;;;;;;;;5017500;27;89743;-62
2023/11/12 08:52:11;;;;;;;;;;;;;;;;;;5016601;27;89736;-63
2023/11/12 08:54:37;;;;;;;;;;;;;;;;;;5019248;27;90790;-62
2023/11/12 08:57:02;;;;;;;;;;;;;;;;;;5017381;28;89984;-63
2023/11/12 08:59:27;;;;;;;;;;;;;;;;;;5021929;27;89955;-63
2023/11/12 09:01:53;;;;;;;;;;;;;;;;;;5020952;27;89839;-62
2023/11/12 09:04:18;;;;;;;;;;;;;;;;;;5023948;27;89808;-62
2023/11/12 09:06:43;;;;;;;;;;;;;;;;;;5026365;27;89079;-62
2023/11/12 09:09:09;;;;;;;;;;;;;;;;;;5023388;27;89505;-63
2023/11/12 09:11:34;;;;;;;;;;;;;;;;;;5018396;27;89205;-63
2023/11/12 09:14:01;;;;;;;;;;;;;;;;;;5017929;28;89586;-62
2023/11/12 09:16:26;;;;;;;;;;;;;;;;;;5018939;27;90374;-62
2023/11/12 09:18:52;;;;;;;;;;;;;;;;;;5020609;27;89689;-62
2023/11/12 09:21:19;;;;;;;;;;;;;;;;;;5015558;28;90043;-63
2023/11/12 09:23:45;;;;;;;;;;;;;;;;;;5022493;27;90592;-62
2023/11/12 09:26:17;;;;;;;;;;;;;;;;;;5019311;27;89591;-62
2023/11/12 09:28:43;;;;;;;;;;;;;;;;;;5019101;28;89577;-62
2023/11/12 09:31:08;;;;;;;;;;;;;;;;;;5023828;27;89943;-62
2023/11/12 09:33:33;;;;;;;;;;;;;;;;;;5023889;27;89526;-62
2023/11/12 09:35:58;;;;;;;;;;;;;;;;;;5022640;27;90112;-62
2023/11/12 09:38:23;;;;;;;;;;;;;;;;;;5020600;28;89903;-62
2023/11/12 09:40:52;;;;;;;;;;;;;;;;;;5017323;27;90054;-62
2023/11/12 09:43:17;;;;;;;;;;;;;;;;;;5017948;27;90622;-62
2023/11/12 09:45:45;;;;;;;;;;;;;;;;;;5022157;28;89518;-62
2023/11/12 09:48:18;;;;;;;;;;;;;;;;;;5011430;28;89548;-63
2023/11/12 09:50:44;;;;;;;;;;;;;;;;;;5019544;28;90293;-62
2023/11/12 09:53:09;;;;;;;;;;;;;;;;;;5026192;27;90074;-62
2023/11/12 09:55:35;;;;;;;;;;;;;;;;;;5017699;27;91268;-62
2023/11/12 09:58:01;;;;;;;;;;;;;;;;;;5018501;27;90782;-63
2023/11/12 10:00:26;;;;;;;;;;;;;;;;;;5020003;27;90759;-63
2023/11/12 10:02:52;;;;;;;;;;;;;;;;;;5017788;27;89975;-62
2023/11/12 10:05:17;;;;;;;;;;;;;;;;;;5020145;27;89313;-62
2023/11/12 10:07:43;;;;;;;;;;;;;;;;;;5019476;27;91149;-62
2023/11/12 10:10:27;;;;;;;;;;;;;;;;;;5018937;28;90155;-63
2023/11/12 10:12:56;;;;;;;;;;;;;;;;;;5018780;27;90319;-63
2023/11/12 10:15:28;;;;;;;;;;;;;;;;;;5026245;27;89445;-62
2023/11/12 10:17:53;;;;;;;;;;;;;;;;;;5019214;27;89633;-62
2023/11/12 10:20:22;;;;;;;;;;;;;;;;;;5019318;27;89537;-63
2023/11/12 10:22:48;;;;;;;;;;;;;;;;;;5017916;27;90726;-62
2023/11/12 10:25:14;;;;;;;;;;;;;;;;;;5018308;27;91380;-64
2023/11/12 10:27:56;;;;;;;;;;;;;;;;;;5020871;27;90869;-63
2023/11/12 10:30:22;;;;;;;;;;;;;;;;;;5016929;27;90528;-62
2023/11/12 10:32:48;;;;;;;;;;;;;;;;;;5018124;28;90240;-63
2023/11/12 10:35:26;;;;;;;;;;;;;;;;;;5023726;28;89547;-62
2023/11/12 10:37:56;;;;;;;;;;;;;;;;;;5012833;27;89917;-62
2023/11/12 10:40:21;;;;;;;;;;;;;;;;;;5022257;27;90741;-62
2023/11/12 10:42:46;;;;;;;;;;;;;;;;;;5018573;27;89902;-62
2023/11/12 10:45:15;;;;;;;;;;;;;;;;;;5011850;27;90410;-62
2023/11/12 10:47:41;;;;;;;;;;;;;;;;;;5018044;27;91276;-63
2023/11/12 10:53:09;;;;;;;;;;;;;;;;;;5041450;22;90592;-60
2023/11/12 10:55:35;;;;;;;;;;;;;;;;;;5035681;27;89561;-60
2023/11/12 10:58:01;;;;;;;;;;;;;;;;;;5038513;27;90430;-60
2023/11/12 11:00:27;;;;;;;;;;;;;;;;;;5037105;27;90994;-60
2023/11/12 11:02:52;;;;;;;;;;;;;;;;;;5033620;27;90744;-60
2023/11/12 11:05:18;;;;;;;;;;;;;;;;;;5038796;27;89190;-60
2023/11/12 11:07:44;;;;;;;;;;;;;;;;;;5038444;27;90113;-60
2023/11/12 11:10:10;;;;;;;;;;;;;;;;;;5034716;27;90203;-65
2023/11/12 11:12:36;;;;;;;;;;;;;;;;;;5039731;27;89449;-60
2023/11/12 11:15:20;;;;;;;;;;;;;;;;;;5037724;27;89994;-60
2023/11/12 11:17:45;;;;;;;;;;;;;;;;;;5038258;27;90783;-60
2023/11/12 11:20:11;;;;;;;;;;;;;;;;;;5041580;27;90095;-60
2023/11/12 11:22:37;;;;;;;;;;;;;;;;;;5035573;27;90315;-60
2023/11/12 11:25:21;;;;;;;;;;;;;;;;;;5032611;27;90315;-61
2023/11/12 11:27:47;;;;;;;;;;;;;;;;;;5034202;27;89762;-60
2023/11/12 11:30:14;;;;;;;;;;;;;;;;;;5037565;27;89727;-61
2023/11/12 11:32:51;;;;;;;;;;;;;;;;;;5036397;27;90135;-60
2023/11/12 11:35:21;;;;;;;;;;;;;;;;;;5040241;27;90388;-60
2023/11/12 11:38:05;;;;;;;;;;;;;;;;;;5037565;27;90135;-59
2023/11/12 11:40:30;;;;;;;;;;;;;;;;;;5037400;27;89255;-60
2023/11/12 11:43:15;;;;;;;;;;;;;;;;;;5041413;27;89632;-60
2023/11/12 11:45:58;;;;;;;;;;;;;;;;;;5038576;27;89073;-60
2023/11/12 11:48:23;;;;;;;;;;;;;;;;;;5037840;27;89597;-61
2023/11/12 11:50:49;;;;;;;;;;;;;;;;;;5040711;27;89566;-60
2023/11/12 11:53:15;;;;;;;;;;;;;;;;;;5043353;27;89351;-60
2023/11/12 11:55:45;;;;;;;;;;;;;;;;;;5042965;27;90255;-60
2023/11/12 11:58:12;;;;;;;;;;;;;;;;;;5041816;27;90377;-60
2023/11/12 12:00:55;;;;;;;;;;;;;;;;;;5039940;27;89071;-60
2023/11/12 12:03:23;;;;;;;;;;;;;;;;;;5037426;27;90866;-59
2023/11/12 12:05:48;;;;;;;;;;;;;;;;;;5047417;27;90963;-60
2023/11/12 12:08:14;;;;;;;;;;;;;;;;;;5039935;27;89583;-60
2023/11/12 12:10:39;;;;;;;;;;;;;;;;;;5038726;27;89660;-59
2023/11/12 12:13:05;;;;;;;;;;;;;;;;;;5044809;27;89800;-59
2023/11/12 12:15:33;;;;;;;;;;;;;;;;;;5043441;27;89556;-59
2023/11/12 12:17:58;;;;;;;;;;;;;;;;;;5035056;27;90794;-66
2023/11/12 12:20:25;;;;;;;;;;;;;;;;;;5037185;27;90750;-59
2023/11/12 12:22:51;;;;;;;;;;;;;;;;;;5043315;27;89729;-59
2023/11/12 12:25:16;;;;;;;;;;;;;;;;;;5043372;27;89177;-60
2023/11/12 12:27:52;;;;;;;;;;;;;;;;;;5039411;27;91361;-60
2023/11/12 12:30:17;;;;;;;;;;;;;;;;;;5042947;27;90151;-60
2023/11/12 12:32:44;;;;;;;;;;;;;;;;;;5040069;27;90598;-59
2023/11/12 12:35:09;;;;;;;;;;;;;;;;;;5040891;27;90865;-59
2023/11/12 12:37:35;;;;;;;;;;;;;;;;;;5041609;27;90390;-59
2023/11/12 12:40:02;;;;;;;;;;;;;;;;;;5039569;27;89151;-61
2023/11/12 12:42:28;;;;;;;;;;;;;;;;;;5038547;27;90485;-59
2023/11/12 12:44:54;;;;;;;;;;;;;;;;;;5040077;27;90128;-59
2023/11/12 12:47:29;;;;;;;;;;;;;;;;;;5041126;27;89423;-60
2023/11/12 12:49:54;;;;;;;;;;;;;;;;;;5038242;27;90384;-60
2023/11/12 12:52:23;;;;;;;;;;;;;;;;;;5043012;27;89316;-59
2023/11/12 12:54:49;;;;;;;;;;;;;;;;;;5041267;27;89542;-60
2023/11/12 12:57:14;;;;;;;;;;;;;;;;;;5040011;27;89430;-60
2023/11/12 12:59:39;;;;;;;;;;;;;;;;;;5039438;27;89438;-60
2023/11/12 13:02:05;;;;;;;;;;;;;;;;;;5037471;27;89486;-60
2023/11/12 13:04:32;;;;;;;;;;;;;;;;;;5042136;27;89561;-60
2023/11/12 13:07:00;;;;;;;;;;;;;;;;;;5038326;27;89161;-59
2023/11/12 13:09:31;;;;;;;;;;;;;;;;;;5037730;27;90702;-60
2023/11/12 13:11:57;;;;;;;;;;;;;;;;;;5040308;27;90034;-60
2023/11/12 13:14:23;;;;;;;;;;;;;;;;;;5037650;27;89775;-60
2023/11/12 13:16:50;;;;;;;;;;;;;;;;;;5035675;27;91046;-59
2023/11/12 13:19:16;;;;;;;;;;;;;;;;;;5039924;27;89389;-60
2023/11/12 13:21:42;;;;;;;;;;;;;;;;;;5039715;27;90545;-59
2023/11/12 13:24:09;;;;;;;;;;;;;;;;;;5037718;27;90185;-59
2023/11/12 13:26:35;;;;;;;;;;;;;;;;;;5039438;27;89972;-59
2023/11/12 13:29:02;;;;;;;;;;;;;;;;;;5038107;27;89476;-60
2023/11/12 13:31:28;;;;;;;;;;;;;;;;;;5041604;27;90702;-59
2023/11/12 13:33:54;;;;;;;;;;;;;;;;;;5037438;27;93753;-59
2023/11/12 13:36:19;;;;;;;;;;;;;;;;;;5038470;27;89550;-59
2023/11/12 13:38:44;;;;;;;;;;;;;;;;;;5023539;27;89506;-59
2023/11/12 13:41:10;;;;;;;;;;;;;;;;;;5035816;27;89638;-60
2023/11/12 13:43:38;;;;;;;;;;;;;;;;;;5034767;27;90321;-60
2023/11/12 13:46:04;;;;;;;;;;;;;;;;;;5041286;27;89094;-60
2023/11/12 13:48:30;;;;;;;;;;;;;;;;;;5042658;27;91387;-59
2023/11/12 13:50:55;;;;;;;;;;;;;;;;;;5025019;27;89339;-59
2023/11/12 13:53:24;;;;;;;;;;;;;;;;;;5045104;27;89201;-59
2023/11/12 13:55:54;;;;;;;;;;;;;;;;;;5037198;27;90591;-59
2023/11/12 13:58:20;;;;;;;;;;;;;;;;;;5032748;27;89630;-60
2023/11/12 14:00:45;;;;;;;;;;;;;;;;;;5034109;27;89689;-60
2023/11/12 14:03:11;;;;;;;;;;;;;;;;;;5019137;27;91791;-60
2023/11/12 14:05:36;;;;;;;;;;;;;;;;;;5033978;27;90309;-59
2023/11/12 14:08:01;;;;;;;;;;;;;;;;;;5039943;27;89522;-59
2023/11/12 14:10:27;;;;;;;;;;;;;;;;;;5037214;27;90376;-59
2023/11/12 14:12:52;;;;;;;;;;;;;;;;;;5040257;27;89185;-60
2023/11/12 14:15:18;;;;;;;;;;;;;;;;;;5040056;27;89183;-59
2023/11/12 14:17:46;;;;;;;;;;;;;;;;;;5036402;27;90153;-60
2023/11/12 14:20:16;;;;;;;;;;;;;;;;;;5037060;27;89725;-60
2023/11/12 14:22:47;;;;;;;;;;;;;;;;;;5037793;27;90052;-59
2023/11/12 14:25:13;;;;;;;;;;;;;;;;;;5042201;27;89335;-59
2023/11/12 14:27:40;;;;;;;;;;;;;;;;;;5035217;27;90742;-61
2023/11/12 14:30:13;;;;;;;;;;;;;;;;;;5035329;27;90009;-60
2023/11/12 14:32:38;;;;;;;;;;;;;;;;;;5039968;27;89622;-60
2023/11/12 14:35:03;;;;;;;;;;;;;;;;;;5038595;27;90136;-59
2023/11/12 14:37:29;;;;;;;;;;;;;;;;;;5030162;27;89269;-60
2023/11/12 14:39:54;;;;;;;;;;;;;;;;;;5037263;27;91195;-60
2023/11/12 14:42:21;;;;;;;;;;;;;;;;;;5035074;27;90584;-64
2023/11/12 14:44:47;;;;;;;;;;;;;;;;;;5033646;27;90112;-62
2023/11/12 14:47:13;;;;;;;;;;;;;;;;;;5037199;27;89541;-60
2023/11/12 14:49:38;;;;;;;;;;;;;;;;;;5041240;27;89457;-60
2023/11/12 14:52:04;;;;;;;;;;;;;;;;;;5037856;27;89927;-60
2023/11/12 14:54:30;;;;;;;;;;;;;;;;;;5037405;27;91092;-60
2023/11/12 14:56:55;;;;;;;;;;;;;;;;;;5038623;27;90135;-59
2023/11/12 14:59:20;;;;;;;;;;;;;;;;;;5039705;27;89522;-61
2023/11/12 15:01:45;;;;;;;;;;;;;;;;;;5039765;27;89161;-60
2023/11/12 15:04:13;;;;;;;;;;;;;;;;;;5038500;27;89071;-60
2023/11/12 15:06:39;;;;;;;;;;;;;;;;;;5038472;27;90299;-61
2023/11/12 15:09:08;;;;;;;;;;;;;;;;;;5040669;27;90231;-60
2023/11/12 15:11:35;;;;;;;;;;;;;;;;;;5039904;27;89479;-60
2023/11/12 15:14:00;;;;;;;;;;;;;;;;;;5035801;27;90766;-60
2023/11/12 15:16:28;;;;;;;;;;;;;;;;;;5037682;27;90885;-60
2023/11/12 15:18:54;;;;;;;;;;;;;;;;;;5037907;27;89361;-60
2023/11/12 15:21:19;;;;;;;;;;;;;;;;;;5037618;27;90205;-60
2023/11/12 15:23:45;;;;;;;;;;;;;;;;;;5039596;27;90232;-60
2023/11/12 15:26:13;;;;;;;;;;;;;;;;;;5041237;27;89526;-61
2023/11/12 15:28:39;;;;;;;;;;;;;;;;;;5043374;27;90326;-60
2023/11/12 15:31:06;;;;;;;;;;;;;;;;;;5041535;27;89029;-60
2023/11/12 15:33:31;;;;;;;;;;;;;;;;;;5040957;27;89550;-59
2023/11/12 15:35:57;;;;;;;;;;;;;;;;;;5038378;27;90522;-60
2023/11/12 15:38:22;;;;;;;;;;;;;;;;;;5042490;27;89633;-59
2023/11/12 15:40:47;;;;;;;;;;;;;;;;;;5040744;27;89577;-59
2023/11/12 15:43:13;;;;;;;;;;;;;;;;;;5043477;27;91793;-60
2023/11/12 15:45:38;;;;;;;;;;;;;;;;;;5043246;27;90740;-60
2023/11/12 15:48:05;;;;;;;;;;;;;;;;;;5043378;27;89361;-60
2023/11/12 15:50:31;;;;;;;;;;;;;;;;;;5038693;27;89157;-59
2023/11/12 15:52:57;;;;;;;;;;;;;;;;;;5045449;27;90440;-60
2023/11/12 15:55:23;;;;;;;;;;;;;;;;;;5043849;27;89427;-60
2023/11/12 15:57:48;;;;;;;;;;;;;;;;;;5044853;27;89642;-60
2023/11/12 16:00:13;;;;;;;;;;;;;;;;;;5038959;27;90669;-60
2023/11/12 16:02:39;;;;;;;;;;;;;;;;;;5041954;27;90166;-60
2023/11/12 16:05:04;;;;;;;;;;;;;;;;;;5035649;27;89705;-60
2023/11/12 16:07:30;;;;;;;;;;;;;;;;;;5045166;27;89602;-60
2023/11/12 16:09:57;;;;;;;;;;;;;;;;;;5042800;27;89498;-59
2023/11/12 16:12:22;;;;;;;;;;;;;;;;;;5038617;27;90512;-59
2023/11/12 16:14:48;;;;;;;;;;;;;;;;;;5037560;27;90554;-59
2023/11/12 16:17:13;;;;;;;;;;;;;;;;;;5043273;27;89355;-60
2023/11/12 16:19:38;;;;;;;;;;;;;;;;;;5041764;27;91630;-59
2023/11/12 16:22:06;;;;;;;;;;;;;;;;;;5043849;27;89516;-60
2023/11/12 16:24:31;;;;;;;;;;;;;;;;;;5040720;27;90879;-60
2023/11/12 16:26:57;;;;;;;;;;;;;;;;;;5041231;27;90033;-60
2023/11/12 16:29:22;;;;;;;;;;;;;;;;;;5041599;27;89037;-60
2023/11/12 16:31:48;;;;;;;;;;;;;;;;;;5042198;27;89540;-59
2023/11/12 16:34:14;;;;;;;;;;;;;;;;;;5041176;27;89701;-60
2023/11/12 16:36:39;;;;;;;;;;;;;;;;;;5042620;27;89458;-59
2023/11/12 16:39:04;;;;;;;;;;;;;;;;;;5038422;27;91187;-59
2023/11/12 16:41:29;;;;;;;;;;;;;;;;;;5042929;27;89315;-59